Time;durP1;ratioP1;P1;durP2;ratioP2;P2;SDS_P1;SDS_P2;PMS_P1;PMS_P2;Temp;Humidity;BMP_temperature;BMP_pressure;BME280_temperature;BME280_humidity;BME280_pressure;Samples;Min_cycle;Max_cycle;Signal;HPM_P1;HPM_P2
2023/01/06 00:01:17;;;;;;;;;;;;;;;14.30;100.00;99673.28;5072341;28;20007;-52
2023/01/06 00:03:42;;;;;;;;;;;;;;;13.92;100.00;99702.25;5069734;28;20049;-52
2023/01/06 00:06:08;;;;;;;;;;;;;;;14.00;100.00;99722.69;5070881;28;20004;-52
2023/01/06 00:08:34;;;;;;;;;;;;;;;14.87;100.00;99736.03;5068028;28;19931;-52
2023/01/06 00:11:03;;;;;;;;;;;;;;;13.06;100.00;99696.41;5070315;28;19916;-53
2023/01/06 00:13:28;;;;;;;;;;;;;;;13.23;100.00;99769.16;5071295;28;21015;-50
2023/01/06 00:15:54;;;;;;;;;;;;;;;13.18;100.00;99830.50;5069926;28;19972;-52
2023/01/06 00:18:19;;;;;;;;;;;;;;;13.03;98.88;99869.78;5066482;28;20007;-53
2023/01/06 00:20:44;;;;;;;;;;;;;;;12.44;86.36;99902.31;5070140;28;20427;-52
2023/01/06 00:23:09;;;;;;;;;;;;;;;12.67;72.42;99975.84;5070348;28;20533;-52
2023/01/06 00:25:35;;;;;;;;;;;;;;;12.70;63.53;100030.03;5070163;28;20011;-52
2023/01/06 00:28:01;;;;;;;;;;;;;;;12.47;61.12;100080.50;5070980;28;19952;-53
2023/01/06 00:30:26;;;;;;;;;;;;;;;12.32;56.63;100104.13;5070223;28;19977;-52
2023/01/06 00:32:51;;;;;;;;;;;;;;;12.88;52.11;100158.84;5069262;28;19968;-52
2023/01/06 00:35:16;;;;;;;;;;;;;;;12.75;54.31;100162.59;5069610;28;19930;-51
2023/01/06 00:37:41;;;;;;;;;;;;;;;12.49;53.40;100171.75;5070715;28;20007;-52
2023/01/06 00:40:07;;;;;;;;;;;;;;;12.67;51.25;100185.19;5069831;28;19955;-49
2023/01/06 00:42:32;;;;;;;;;;;;;;;12.44;51.16;100190.84;5069255;28;19920;-50
2023/01/06 00:44:57;;;;;;;;;;;;;;;12.59;51.10;100205.16;5067099;28;20346;-52
2023/01/06 00:47:23;;;;;;;;;;;;;;;12.42;53.04;100201.19;5068536;28;20744;-50
2023/01/06 00:49:48;;;;;;;;;;;;;;;12.40;53.80;100200.38;5070004;28;19927;-52
2023/01/06 00:52:13;;;;;;;;;;;;;;;12.64;55.16;100190.41;5068397;28;19920;-52
2023/01/06 00:54:39;;;;;;;;;;;;;;;12.68;57.60;100181.69;5071170;28;19923;-52
2023/01/06 00:57:04;;;;;;;;;;;;;;;12.54;59.46;100162.19;5060332;28;19920;-50
2023/01/06 00:59:30;;;;;;;;;;;;;;;12.62;60.45;100161.16;5069846;28;19926;-50
2023/01/06 01:01:55;;;;;;;;;;;;;;;12.83;59.61;100170.19;5068110;28;19960;-53
2023/01/06 01:04:22;;;;;;;;;;;;;;;12.13;65.03;100117.41;5069049;28;19924;-52
2023/01/06 01:06:47;;;;;;;;;;;;;;;12.10;59.87;100145.00;5070156;28;19932;-50
2023/01/06 01:09:13;;;;;;;;;;;;;;;12.08;56.11;100176.03;5069045;28;19921;-50
2023/01/06 01:14:22;;;;;;;;;;;;;;;12.40;61.25;100165.94;5070076;28;19923;-51
2023/01/06 01:16:47;;;;;;;;;;;;;;;12.50;61.93;100151.97;5068243;28;19991;-52
2023/01/06 01:19:13;;;;;;;;;;;;;;;12.61;63.61;100143.94;5069430;28;19920;-51
2023/01/06 01:21:38;;;;;;;;;;;;;;;12.08;64.38;100123.53;5068920;28;19926;-50
2023/01/06 01:24:04;;;;;;;;;;;;;;;12.55;60.10;100153.53;5069247;28;19924;-51
2023/01/06 01:26:29;;;;;;;;;;;;;;;12.61;63.48;100128.44;5069009;28;19931;-51
2023/01/06 01:28:54;;;;;;;;;;;;;;;12.90;64.43;100128.63;5069267;28;19983;-52
2023/01/06 01:31:19;;;;;;;;;;;;;;;12.94;67.67;100107.00;5070604;28;19985;-52
2023/01/06 01:33:45;;;;;;;;;;;;;;;13.57;70.31;100099.41;5069656;28;19920;-53
2023/01/06 01:36:14;;;;;;;;;;;;;;;12.96;79.64;100038.00;5070513;28;20276;-52
2023/01/06 01:38:39;;;;;;;;;;;;;;;13.17;82.04;100020.22;5068954;28;19924;-53
2023/01/06 01:41:04;;;;;;;;;;;;;;;13.33;88.65;99994.84;5069858;28;19924;-52
2023/01/06 01:43:43;;;;;;;;;;;;;;;13.43;93.05;99977.31;5066984;28;19928;-51
2023/01/06 01:46:08;;;;;;;;;;;;;;;13.64;96.59;99949.97;5068361;28;19920;-52
2023/01/06 01:48:34;;;;;;;;;;;;;;;13.51;100.00;99915.84;5058333;28;19920;-51
2023/01/06 01:51:00;;;;;;;;;;;;;;;12.98;100.00;99886.25;5069273;28;19921;-52
2023/01/06 01:53:26;;;;;;;;;;;;;;;13.22;100.00;99904.56;5068560;28;20465;-52
2023/01/06 01:55:52;;;;;;;;;;;;;;;13.08;100.00;99906.69;5070421;28;19923;-51
2023/01/06 01:58:24;;;;;;;;;;;;;;;13.18;100.00;99913.28;5069852;28;19973;-53
2023/01/06 02:00:49;;;;;;;;;;;;;;;13.16;100.00;99917.69;5071306;28;19920;-52
2023/01/06 02:03:15;;;;;;;;;;;;;;;13.02;100.00;99917.19;5071332;28;20273;-52
2023/01/06 02:05:41;;;;;;;;;;;;;;;13.12;100.00;99923.81;5072434;28;19920;-53
2023/01/06 02:08:08;;;;;;;;;;;;;;;13.06;100.00;99905.88;5073009;28;20397;-52
2023/01/06 02:10:34;;;;;;;;;;;;;;;13.19;100.00;99917.59;5071824;28;19920;-52
2023/01/06 02:12:59;;;;;;;;;;;;;;;13.06;100.00;99887.78;5072618;28;19921;-52
2023/01/06 02:15:31;;;;;;;;;;;;;;;12.96;100.00;99882.84;5070520;28;19916;-52
2023/01/06 02:18:05;;;;;;;;;;;;;;;12.68;100.00;99892.22;5072992;28;19973;-50
2023/01/06 02:20:39;;;;;;;;;;;;;;;12.47;100.00;99884.16;5071781;28;19963;-52
2023/01/06 02:23:07;;;;;;;;;;;;;;;12.13;100.00;99877.28;5072781;28;20017;-53
2023/01/06 02:25:41;;;;;;;;;;;;;;;12.45;100.00;99910.91;5073723;28;19924;-53
2023/01/06 02:28:19;;;;;;;;;;;;;;;12.77;99.65;99917.84;5077574;28;19927;-52
2023/01/06 02:30:54;;;;;;;;;;;;;;;12.95;100.00;99899.28;5070799;28;19989;-51
2023/01/06 02:33:30;;;;;;;;;;;;;;;12.41;100.00;99863.66;5071299;28;19967;-53
2023/01/06 02:36:01;;;;;;;;;;;;;;;12.27;100.00;99855.41;5072246;28;19924;-50
2023/01/06 02:38:29;;;;;;;;;;;;;;;12.37;100.00;99861.19;5071552;28;19928;-52
2023/01/06 02:41:13;;;;;;;;;;;;;;;12.63;100.00;99863.94;5072861;28;19920;-52
2023/01/06 02:43:44;;;;;;;;;;;;;;;12.88;100.00;99848.59;5069427;28;19930;-54
2023/01/06 02:46:15;;;;;;;;;;;;;;;12.77;100.00;99819.63;5070170;28;19921;-53
2023/01/06 02:48:45;;;;;;;;;;;;;;;12.32;100.00;99787.25;5069599;28;20335;-53
2023/01/06 02:51:17;;;;;;;;;;;;;;;12.61;100.00;99782.19;5070310;28;20509;-53
2023/01/06 02:53:48;;;;;;;;;;;;;;;12.30;100.00;99777.84;5070584;28;20289;-50
2023/01/06 02:56:13;;;;;;;;;;;;;;;12.48;100.00;99768.75;5070763;28;20309;-53
2023/01/06 02:58:47;;;;;;;;;;;;;;;12.87;100.00;99753.03;5068997;28;19931;-52
2023/01/06 03:01:17;;;;;;;;;;;;;;;13.01;100.00;99744.84;5069769;28;20306;-52
2023/01/06 03:03:43;;;;;;;;;;;;;;;12.97;100.00;99708.72;5069484;28;19917;-50
2023/01/06 03:06:11;;;;;;;;;;;;;;;12.77;100.00;99690.38;5070869;28;19962;-52
2023/01/06 03:08:36;;;;;;;;;;;;;;;13.03;100.00;99693.94;5069251;28;20728;-50
2023/01/06 03:11:02;;;;;;;;;;;;;;;12.44;100.00;99680.16;5069897;28;19920;-53
2023/01/06 03:13:46;;;;;;;;;;;;;;;12.59;100.00;99681.47;5068323;28;19971;-52
2023/01/06 03:16:11;;;;;;;;;;;;;;;12.68;100.00;99685.50;5068853;28;19920;-53
2023/01/06 03:18:36;;;;;;;;;;;;;;;12.47;100.00;99663.72;5065474;28;20148;-52
2023/01/06 03:21:03;;;;;;;;;;;;;;;13.04;100.00;99683.53;5067076;28;19920;-53
2023/01/06 03:23:28;;;;;;;;;;;;;;;12.81;100.00;99657.56;5067284;28;19917;-53
2023/01/06 03:25:53;;;;;;;;;;;;;;;13.02;100.00;99643.09;5068269;28;19920;-53
2023/01/06 03:28:19;;;;;;;;;;;;;;;13.09;100.00;99637.72;5069320;28;19952;-53
2023/01/06 03:30:50;;;;;;;;;;;;;;;13.24;100.00;99641.53;5071471;28;19927;-51
2023/01/06 03:33:18;;;;;;;;;;;;;;;13.39;100.00;99622.94;5069494;28;19916;-52
2023/01/06 03:35:43;;;;;;;;;;;;;;;13.34;100.00;99609.34;5044723;28;19989;-53
2023/01/06 03:38:08;;;;;;;;;;;;;;;13.19;100.00;99609.81;5071259;28;19936;-52
2023/01/06 03:40:52;;;;;;;;;;;;;;;13.42;100.00;99596.13;5070403;28;19919;-53
2023/01/06 03:43:29;;;;;;;;;;;;;;;13.44;100.00;99576.22;5068405;28;19932;-53
2023/01/06 03:45:55;;;;;;;;;;;;;;;13.59;100.00;99573.09;5067346;28;19920;-51
2023/01/06 03:48:23;;;;;;;;;;;;;;;13.29;100.00;99538.78;5058402;28;19924;-52
2023/01/06 03:50:49;;;;;;;;;;;;;;;13.67;100.00;99552.13;5070865;28;19916;-52
2023/01/06 03:53:33;;;;;;;;;;;;;;;13.28;100.00;99537.09;5068497;28;19969;-53
2023/01/06 03:56:28;;;;;;;;;;;;;;;13.05;100.00;99535.28;5070756;28;19982;-53
2023/01/06 03:58:54;;;;;;;;;;;;;;;13.35;100.00;99548.91;5055624;28;20053;-51
2023/01/06 04:01:19;;;;;;;;;;;;;;;13.01;100.00;99544.00;5069565;28;19938;-52
2023/01/06 04:03:45;;;;;;;;;;;;;;;13.27;100.00;99555.22;5068872;28;19923;-52
2023/01/06 04:06:10;;;;;;;;;;;;;;;13.36;100.00;99540.28;5068203;28;19938;-52
2023/01/06 04:08:36;;;;;;;;;;;;;;;12.86;100.00;99529.84;5067186;28;19927;-52
2023/01/06 04:11:01;;;;;;;;;;;;;;;13.52;100.00;99547.47;5069889;28;20038;-52
2023/01/06 04:13:26;;;;;;;;;;;;;;;12.81;100.00;99521.41;5068941;28;19920;-54
2023/01/06 04:15:51;;;;;;;;;;;;;;;13.19;100.00;99532.22;5068947;28;19920;-53
2023/01/06 04:18:17;;;;;;;;;;;;;;;13.29;100.00;99533.59;5067244;28;20009;-52
2023/01/06 04:20:42;;;;;;;;;;;;;;;12.38;100.00;99507.25;5070648;28;20544;-53
2023/01/06 04:23:07;;;;;;;;;;;;;;;12.75;100.00;99535.38;5069689;28;20053;-54
2023/01/06 04:25:32;;;;;;;;;;;;;;;12.70;100.00;99550.19;5069968;28;19927;-54
2023/01/06 04:27:57;;;;;;;;;;;;;;;12.92;100.00;99549.50;5069083;28;19920;-54
2023/01/06 04:30:23;;;;;;;;;;;;;;;12.42;100.00;99531.28;5069585;28;20346;-54
2023/01/06 04:32:48;;;;;;;;;;;;;;;12.47;100.00;99522.47;5070161;28;19920;-52
2023/01/06 04:35:13;;;;;;;;;;;;;;;12.66;100.00;99540.00;5067876;28;19920;-54
2023/01/06 04:37:38;;;;;;;;;;;;;;;12.62;100.00;99525.50;5070178;28;19930;-54
2023/01/06 04:40:06;;;;;;;;;;;;;;;12.11;100.00;99527.91;5067570;28;19920;-54
2023/01/06 04:43:02;;;;;;;;;;;;;;;12.00;100.00;99522.22;5070239;28;19996;-54
2023/01/06 04:45:16;;;;;;;;;;;;;;;12.04;100.00;99520.34;5067774;28;19932;-54
2023/01/06 04:47:42;;;;;;;;;;;;;;;12.12;100.00;99506.34;5066822;28;20430;-53
2023/01/06 04:50:07;;;;;;;;;;;;;;;12.67;100.00;99514.09;5068606;28;20162;-53
2023/01/06 04:52:32;;;;;;;;;;;;;;;11.87;100.00;99487.28;5069274;28;19917;-54
2023/01/06 04:54:57;;;;;;;;;;;;;;;12.16;100.00;99476.13;5070891;28;19921;-54
2023/01/06 04:57:23;;;;;;;;;;;;;;;12.01;100.00;99467.09;5070300;28;20349;-54
2023/01/06 04:59:48;;;;;;;;;;;;;;;12.02;100.00;99471.38;5068118;28;20377;-54
2023/01/06 05:02:13;;;;;;;;;;;;;;;12.14;100.00;99463.25;5069730;28;20321;-54
2023/01/06 05:04:38;;;;;;;;;;;;;;;12.45;100.00;99451.97;5067563;28;19930;-54
2023/01/06 05:07:03;;;;;;;;;;;;;;;12.33;100.00;99449.75;5070150;28;19917;-54
2023/01/06 05:09:29;;;;;;;;;;;;;;;11.80;100.00;99436.75;5069257;28;20026;-54
2023/01/06 05:11:54;;;;;;;;;;;;;;;12.21;100.00;99442.41;5068709;28;19964;-54
2023/01/06 05:14:19;;;;;;;;;;;;;;;12.35;100.00;99451.38;5060324;28;19963;-52
2023/01/06 05:16:44;;;;;;;;;;;;;;;12.42;100.00;99439.13;5067803;28;19959;-55
2023/01/06 05:19:09;;;;;;;;;;;;;;;12.36;100.00;99426.41;5067762;28;19974;-54
2023/01/06 05:21:35;;;;;;;;;;;;;;;11.79;100.00;99424.72;5067248;28;19920;-54
2023/01/06 05:24:00;;;;;;;;;;;;;;;12.59;100.00;99433.44;5065493;28;20452;-54
2023/01/06 05:26:26;;;;;;;;;;;;;;;12.75;100.00;99426.00;5069363;28;20567;-56
2023/01/06 05:28:51;;;;;;;;;;;;;;;12.94;100.00;99408.94;5069458;28;20288;-53
2023/01/06 05:31:16;;;;;;;;;;;;;;;13.09;100.00;99392.06;5069892;28;19985;-52
2023/01/06 05:33:42;;;;;;;;;;;;;;;12.86;100.00;99385.09;5072716;28;19923;-55
2023/01/06 05:36:09;;;;;;;;;;;;;;;12.63;100.00;99385.06;5074111;28;19927;-54
2023/01/06 05:38:34;;;;;;;;;;;;;;;13.12;100.00;99384.19;5072424;28;19923;-54
2023/01/06 05:40:59;;;;;;;;;;;;;;;12.89;100.00;99394.50;5064589;28;19916;-54
2023/01/06 05:43:25;;;;;;;;;;;;;;;12.78;100.00;99392.28;5069955;28;19927;-55
2023/01/06 05:45:50;;;;;;;;;;;;;;;12.74;100.00;99401.03;5072304;28;20120;-54
2023/01/06 05:48:16;;;;;;;;;;;;;;;12.76;100.00;99407.84;5071953;28;20008;-54
2023/01/06 05:50:41;;;;;;;;;;;;;;;12.65;100.00;99415.09;5072943;28;20724;-55
2023/01/06 05:53:06;;;;;;;;;;;;;;;12.13;100.00;99404.78;5073766;28;20080;-54
2023/01/06 05:55:31;;;;;;;;;;;;;;;12.54;100.00;99418.06;5070023;28;19927;-54
2023/01/06 05:57:57;;;;;;;;;;;;;;;12.14;100.00;99416.78;5074171;28;20742;-55
2023/01/06 06:00:22;;;;;;;;;;;;;;;12.44;100.00;99418.41;5070585;28;19912;-54
2023/01/06 06:02:47;;;;;;;;;;;;;;;12.28;100.00;99412.91;5071301;28;19920;-54
2023/01/06 06:05:12;;;;;;;;;;;;;;;12.42;100.00;99418.47;5073546;28;19916;-55
2023/01/06 06:07:38;;;;;;;;;;;;;;;12.47;100.00;99421.72;5072166;28;20430;-54
2023/01/06 06:10:03;;;;;;;;;;;;;;;12.01;100.00;99404.31;5072697;28;19916;-55
2023/01/06 06:12:28;;;;;;;;;;;;;;;12.12;100.00;99418.56;5072419;28;20489;-55
2023/01/06 06:14:54;;;;;;;;;;;;;;;12.31;100.00;99428.28;5071849;28;19916;-54
2023/01/06 06:17:19;;;;;;;;;;;;;;;12.46;100.00;99425.22;5072530;28;19971;-54
2023/01/06 06:19:44;;;;;;;;;;;;;;;12.24;100.00;99426.81;5072005;28;19916;-53
2023/01/06 06:22:10;;;;;;;;;;;;;;;12.02;100.00;99443.00;5072125;28;19923;-55
2023/01/06 06:24:35;;;;;;;;;;;;;;;12.47;100.00;99459.63;5072003;28;20312;-55
2023/01/06 06:27:00;;;;;;;;;;;;;;;11.59;100.00;99431.34;5071851;28;20426;-53
2023/01/06 06:29:25;;;;;;;;;;;;;;;12.71;100.00;99455.41;5072344;28;19990;-54
2023/01/06 06:31:50;;;;;;;;;;;;;;;12.09;100.00;99431.56;5072013;28;20027;-54
2023/01/06 06:34:16;;;;;;;;;;;;;;;12.04;100.00;99443.78;5073031;28;19955;-55
2023/01/06 06:36:41;;;;;;;;;;;;;;;12.33;100.00;99457.50;5071942;28;19916;-55
2023/01/06 06:39:06;;;;;;;;;;;;;;;12.58;100.00;99461.88;5072635;28;20360;-56
2023/01/06 06:41:31;;;;;;;;;;;;;;;12.09;100.00;99457.38;5071012;28;19944;-54
2023/01/06 06:43:57;;;;;;;;;;;;;;;12.28;100.00;99456.81;5071343;28;19920;-55
2023/01/06 06:46:22;;;;;;;;;;;;;;;12.45;100.00;99446.78;5072328;28;19920;-54
2023/01/06 06:48:48;;;;;;;;;;;;;;;11.96;100.00;99432.84;5070650;28;20516;-55
2023/01/06 06:51:15;;;;;;;;;;;;;;;12.22;100.00;99449.25;5072336;28;19916;-54
2023/01/06 06:53:41;;;;;;;;;;;;;;;12.28;100.00;99456.81;5070264;28;19999;-54
2023/01/06 06:56:06;;;;;;;;;;;;;;;12.59;100.00;99442.88;5070143;28;20015;-55
2023/01/06 06:58:32;;;;;;;;;;;;;;;12.62;100.00;99442.81;5071165;28;19925;-54
2023/01/06 07:00:57;;;;;;;;;;;;;;;12.45;100.00;99436.47;5071744;28;20314;-55
2023/01/06 07:03:24;;;;;;;;;;;;;;;12.33;100.00;99447.16;5072645;28;19969;-54
2023/01/06 07:05:49;;;;;;;;;;;;;;;12.01;100.00;99438.69;5071838;28;20602;-54
2023/01/06 07:08:14;;;;;;;;;;;;;;;12.46;100.00;99448.47;5068374;28;19926;-54
2023/01/06 07:10:40;;;;;;;;;;;;;;;11.86;100.00;99431.38;5071285;28;19921;-53
2023/01/06 07:13:05;;;;;;;;;;;;;;;12.13;100.00;99461.56;5072672;28;19916;-54
2023/01/06 07:15:30;;;;;;;;;;;;;;;12.04;100.00;99461.84;5071332;28;19916;-55
2023/01/06 07:18:00;;;;;;;;;;;;;;;12.38;100.00;99468.53;5070707;28;19924;-54
2023/01/06 07:20:25;;;;;;;;;;;;;;;12.23;100.00;99456.13;5070295;28;20000;-55
2023/01/06 07:22:50;;;;;;;;;;;;;;;11.79;100.00;99450.53;5070683;28;19994;-54
2023/01/06 07:25:16;;;;;;;;;;;;;;;11.90;100.00;99469.16;5070218;28;19958;-53
2023/01/06 07:27:41;;;;;;;;;;;;;;;12.48;100.00;99482.84;5069942;28;19958;-54
2023/01/06 07:30:06;;;;;;;;;;;;;;;12.36;100.00;99454.81;5067869;28;19962;-54
2023/01/06 07:32:32;;;;;;;;;;;;;;;12.53;100.00;99459.44;5067327;28;19925;-53
2023/01/06 07:34:57;;;;;;;;;;;;;;;12.39;100.00;99446.16;5069594;28;20411;-54
2023/01/06 07:37:22;;;;;;;;;;;;;;;12.53;100.00;99444.78;5066875;28;19926;-54
2023/01/06 07:39:47;;;;;;;;;;;;;;;11.96;100.00;99430.25;5066562;28;19924;-54
2023/01/06 07:42:13;;;;;;;;;;;;;;;12.19;100.00;99439.03;5070689;28;19920;-54
2023/01/06 07:44:38;;;;;;;;;;;;;;;11.99;100.00;99447.38;5066235;28;19935;-54
2023/01/06 07:47:03;;;;;;;;;;;;;;;12.05;100.00;99452.38;5068927;28;20011;-54
2023/01/06 07:49:28;;;;;;;;;;;;;;;11.93;100.00;99461.34;5068384;28;20011;-54
2023/01/06 07:51:54;;;;;;;;;;;;;;;12.64;100.00;99472.88;5070989;28;19955;-54
2023/01/06 07:54:19;;;;;;;;;;;;;;;12.31;100.00;99465.28;5070083;28;19920;-53
2023/01/06 07:56:44;;;;;;;;;;;;;;;11.98;100.00;99451.72;5067201;28;19949;-54
2023/01/06 07:59:09;;;;;;;;;;;;;;;12.82;100.00;99476.59;5069555;28;20392;-53
2023/01/06 08:01:35;;;;;;;;;;;;;;;12.84;100.00;99446.34;5070042;28;20363;-54
2023/01/06 08:04:00;;;;;;;;;;;;;;;12.49;100.00;99421.69;5071482;28;20285;-53
2023/01/06 08:06:25;;;;;;;;;;;;;;;12.60;100.00;99431.69;5068314;28;20054;-51
2023/01/06 08:08:50;;;;;;;;;;;;;;;12.35;100.00;99427.31;5066882;28;20431;-54
2023/01/06 08:11:15;;;;;;;;;;;;;;;12.23;100.00;99414.81;5065327;28;19916;-54
2023/01/06 08:13:41;;;;;;;;;;;;;;;11.72;100.00;99422.34;5066476;28;20253;-54
2023/01/06 08:16:06;;;;;;;;;;;;;;;11.95;100.00;99456.09;5065884;28;19917;-54
2023/01/06 08:18:32;;;;;;;;;;;;;;;11.95;100.00;99481.91;5065263;28;20019;-53
2023/01/06 08:21:01;;;;;;;;;;;;;;;11.84;100.00;99495.13;5063637;28;19920;-54
2023/01/06 08:23:26;;;;;;;;;;;;;;;11.64;100.00;99509.44;5064994;28;19923;-53
2023/01/06 08:25:51;;;;;;;;;;;;;;;12.04;100.00;99544.47;5064702;28;19916;-54
2023/01/06 08:28:17;;;;;;;;;;;;;;;12.12;100.00;99550.22;5064832;28;19935;-53
2023/01/06 08:30:42;;;;;;;;;;;;;;;12.43;100.00;99546.75;5064872;28;20019;-55
2023/01/06 08:33:07;;;;;;;;;;;;;;;12.43;100.00;99531.25;5064585;28;20374;-54
2023/01/06 08:35:33;;;;;;;;;;;;;;;12.45;100.00;99532.03;5064831;28;20388;-54
2023/01/06 08:37:58;;;;;;;;;;;;;;;12.23;100.00;99536.16;5064869;28;19942;-54
2023/01/06 08:40:23;;;;;;;;;;;;;;;12.13;100.00;99528.69;5064864;28;20037;-54
2023/01/06 08:42:48;;;;;;;;;;;;;;;11.98;100.00;99554.97;5056962;28;20003;-53
2023/01/06 08:45:13;;;;;;;;;;;;;;;12.54;100.00;99580.84;5062321;28;20014;-55
2023/01/06 08:47:39;;;;;;;;;;;;;;;12.26;100.00;99557.56;5062284;28;20266;-54
2023/01/06 08:50:05;;;;;;;;;;;;;;;12.24;100.00;99559.34;5062857;28;20364;-54
2023/01/06 08:52:30;;;;;;;;;;;;;;;12.39;100.00;99559.78;5066044;28;20721;-54
2023/01/06 08:54:55;;;;;;;;;;;;;;;11.77;100.00;99555.50;5064780;28;19950;-55
2023/01/06 08:57:20;;;;;;;;;;;;;;;12.48;100.00;99586.19;5066964;28;20350;-54
2023/01/06 08:59:46;;;;;;;;;;;;;;;12.49;100.00;99589.59;5064676;28;19927;-55
2023/01/06 09:02:11;;;;;;;;;;;;;;;12.55;100.00;99579.94;5065092;28;19916;-54
2023/01/06 09:04:36;;;;;;;;;;;;;;;12.41;100.00;99569.19;5065765;28;19920;-55
2023/01/06 09:07:01;;;;;;;;;;;;;;;11.91;100.00;99574.09;5072613;28;19920;-54
2023/01/06 09:09:26;;;;;;;;;;;;;;;12.23;100.00;99600.72;5070120;28;19920;-55
2023/01/06 09:11:52;;;;;;;;;;;;;;;12.77;100.00;99620.59;5070034;28;19916;-55
2023/01/06 09:14:17;;;;;;;;;;;;;;;12.62;100.00;99608.19;5069800;28;19928;-54
2023/01/06 09:16:42;;;;;;;;;;;;;;;12.21;100.00;99603.34;5068769;28;20053;-54
2023/01/06 09:19:09;;;;;;;;;;;;;;;12.68;100.00;99613.13;5070057;28;19916;-55
2023/01/06 09:21:34;;;;;;;;;;;;;;;12.66;100.00;99620.13;5070293;28;19920;-53
2023/01/06 09:23:59;;;;;;;;;;;;;;;12.65;100.00;99615.81;5070255;28;19920;-54
2023/01/06 09:26:25;;;;;;;;;;;;;;;12.12;100.00;99634.59;5069765;28;19920;-52
2023/01/06 09:28:50;;;;;;;;;;;;;;;11.91;100.00;99665.28;5069671;28;20789;-54
2023/01/06 09:31:17;;;;;;;;;;;;;;;12.23;100.00;99688.53;5069796;28;19916;-54
2023/01/06 09:33:42;;;;;;;;;;;;;;;12.21;100.00;99700.63;5070755;28;20042;-54
2023/01/06 09:36:07;;;;;;;;;;;;;;;12.32;100.00;99714.09;5070803;28;20006;-54
2023/01/06 09:38:32;;;;;;;;;;;;;;;12.48;100.00;99727.44;5067841;28;19955;-55
2023/01/06 09:41:07;;;;;;;;;;;;;;;12.08;100.00;99737.09;5070274;28;20495;-54
2023/01/06 09:43:35;;;;;;;;;;;;;;;12.07;100.00;99738.00;5066013;28;19926;-54
2023/01/06 09:46:00;;;;;;;;;;;;;;;11.96;100.00;99762.41;5069219;28;20017;-54
2023/01/06 09:48:30;;;;;;;;;;;;;;;12.12;100.00;99782.59;5067391;28;20318;-54
2023/01/06 09:50:57;;;;;;;;;;;;;;;12.21;100.00;99798.75;5069463;28;19916;-55
2023/01/06 09:53:27;;;;;;;;;;;;;;;12.18;100.00;99784.19;5068024;28;19916;-55
2023/01/06 09:55:56;;;;;;;;;;;;;;;12.77;100.00;99823.06;5067117;28;20260;-55
2023/01/06 09:58:27;;;;;;;;;;;;;;;12.07;100.00;99787.03;5065300;28;19928;-55
2023/01/06 10:00:53;;;;;;;;;;;;;;;12.20;99.38;99812.53;5067350;28;19985;-54
2023/01/06 10:03:20;;;;;;;;;;;;;;;12.28;97.20;99810.63;5066054;28;20822;-54
2023/01/06 10:05:54;;;;;;;;;;;;;;;12.20;96.61;99821.16;5067250;28;19916;-54
2023/01/06 10:08:26;;;;;;;;;;;;;;;11.82;94.18;99825.50;5066388;28;20005;-54
2023/01/06 10:11:14;;;;;;;;;;;;;;;12.18;91.26;99850.47;5069104;28;19939;-54
2023/01/06 10:13:52;;;;;;;;;;;;;;;12.18;87.12;99869.41;5061510;28;20444;-52
2023/01/06 10:16:27;;;;;;;;;;;;;;;12.24;85.80;99891.63;5065172;28;19981;-52
2023/01/06 10:18:52;;;;;;;;;;;;;;;12.82;82.14;99920.31;5066883;28;20039;-53
2023/01/06 10:21:29;;;;;;;;;;;;;;;12.12;90.40;99870.41;5068628;28;20689;-50
2023/01/06 10:24:13;;;;;;;;;;;;;;;12.47;86.58;99889.31;5068296;28;19939;-52
2023/01/06 10:26:38;;;;;;;;;;;;;;;12.33;89.39;99868.16;5066770;28;19942;-53
2023/01/06 10:29:05;;;;;;;;;;;;;;;12.91;87.15;99882.16;5068736;28;20429;-52
2023/01/06 10:31:33;;;;;;;;;;;;;;;12.69;91.13;99855.19;5064517;28;19969;-53
2023/01/06 10:33:59;;;;;;;;;;;;;;;12.27;89.93;99840.78;5067163;28;19987;-53
2023/01/06 10:36:26;;;;;;;;;;;;;;;12.56;89.22;99859.81;5066127;28;20406;-52
2023/01/06 10:38:52;;;;;;;;;;;;;;;12.54;88.55;99861.59;5065872;28;19930;-52
2023/01/06 10:41:17;;;;;;;;;;;;;;;12.31;87.22;99867.34;5066992;28;19920;-53
2023/01/06 10:43:42;;;;;;;;;;;;;;;12.00;83.06;99881.03;5065573;28;19919;-53
2023/01/06 10:46:08;;;;;;;;;;;;;;;12.79;79.77;99918.66;5058143;28;19989;-52
2023/01/06 10:48:34;;;;;;;;;;;;;;;12.46;85.84;99879.88;5065817;28;19923;-51
2023/01/06 10:50:59;;;;;;;;;;;;;;;12.64;82.04;99906.16;5068100;28;19963;-52
2023/01/06 10:53:25;;;;;;;;;;;;;;;12.33;80.44;99901.75;5066380;28;19916;-51
2023/01/06 10:55:56;;;;;;;;;;;;;;;13.02;72.68;99948.22;5065147;28;19916;-51
2023/01/06 10:58:41;;;;;;;;;;;;;;;12.35;71.72;99936.13;5066108;28;19924;-53
2023/01/06 11:01:10;;;;;;;;;;;;;;;12.48;69.06;99963.38;5067271;28;19932;-52
2023/01/06 11:03:36;;;;;;;;;;;;;;;11.97;71.29;99950.78;5065390;28;20039;-52
2023/01/06 11:06:06;;;;;;;;;;;;;;;12.49;62.45;100001.22;5067393;28;19961;-49
2023/01/06 11:08:31;;;;;;;;;;;;;;;12.69;60.63;100021.44;5063681;28;19981;-49
2023/01/06 11:10:56;;;;;;;;;;;;;;;12.63;62.20;100024.16;5066826;28;20015;-52
2023/01/06 11:13:25;;;;;;;;;;;;;;;12.41;65.78;100003.16;5064908;28;20427;-52
2023/01/06 11:15:50;;;;;;;;;;;;;;;12.70;63.25;100019.69;5066933;28;20392;-52
2023/01/06 11:18:38;;;;;;;;;;;;;;;12.44;62.86;100016.00;5064591;28;20035;-52
2023/01/06 11:21:06;;;;;;;;;;;;;;;12.13;58.91;100029.63;5068074;28;20361;-51
2023/01/06 11:23:31;;;;;;;;;;;;;;;12.34;56.67;100061.03;5067378;28;19917;-52
2023/01/06 11:26:09;;;;;;;;;;;;;;;12.70;55.79;100073.97;5066910;28;19927;-52
2023/01/06 11:28:34;;;;;;;;;;;;;;;12.45;57.33;100066.78;5063206;28;20007;-52
2023/01/06 11:31:01;;;;;;;;;;;;;;;12.63;51.49;100090.50;5066133;28;20442;-50
2023/01/06 11:33:27;;;;;;;;;;;;;;;12.63;52.31;100106.00;5066233;28;19916;-51
2023/01/06 11:35:52;;;;;;;;;;;;;;;12.49;49.87;100111.47;5064914;28;19961;-50
2023/01/06 11:38:18;;;;;;;;;;;;;;;12.61;48.77;100138.78;5064654;28;20412;-51
2023/01/06 11:40:44;;;;;;;;;;;;;;;12.95;49.40;100150.06;5062236;28;20011;-52
2023/01/06 11:43:20;;;;;;;;;;;;;;;12.12;52.39;100131.19;5065742;28;19955;-49
2023/01/06 11:45:46;;;;;;;;;;;;;;;11.96;50.85;100134.97;5063381;28;19921;-49
2023/01/06 11:48:19;;;;;;;;;;;;;;;12.09;50.47;100146.75;5065758;28;19966;-49
2023/01/06 11:50:50;;;;;;;;;;;;;;;11.83;46.30;100160.13;5063521;28;19921;-50
2023/01/06 11:53:16;;;;;;;;;;;;;;;12.50;45.01;100208.81;5069014;28;19916;-51
2023/01/06 11:55:41;;;;;;;;;;;;;;;12.43;45.38;100213.25;5067074;28;19925;-52
2023/01/06 11:58:15;;;;;;;;;;;;;;;12.39;49.19;100195.25;5065948;28;19920;-52
2023/01/06 12:00:41;;;;;;;;;;;;;;;12.65;49.22;100194.69;5066014;28;19924;-52
2023/01/06 12:03:14;;;;;;;;;;;;;;;12.09;51.80;100164.81;5066235;28;19923;-52
2023/01/06 12:05:39;;;;;;;;;;;;;;;11.98;49.86;100171.09;5064121;28;20278;-51
2023/01/06 12:08:15;;;;;;;;;;;;;;;12.11;51.31;100186.31;5065122;28;19920;-52
2023/01/06 12:10:41;;;;;;;;;;;;;;;12.16;52.36;100173.31;5064333;28;21153;-49
2023/01/06 12:13:07;;;;;;;;;;;;;;;13.03;49.43;100203.34;5064709;28;19927;-51
2023/01/06 12:15:32;;;;;;;;;;;;;;;12.54;54.88;100156.16;5066080;28;19923;-52
2023/01/06 12:18:00;;;;;;;;;;;;;;;12.68;53.02;100153.25;5067282;28;20531;-50
2023/01/06 12:20:26;;;;;;;;;;;;;;;12.53;57.44;100126.88;5064317;28;19916;-51
2023/01/06 12:23:01;;;;;;;;;;;;;;;12.73;54.22;100138.53;5067828;28;20178;-51
2023/01/06 12:25:29;;;;;;;;;;;;;;;13.04;54.43;100142.97;5063172;28;20517;-50
2023/01/06 12:28:14;;;;;;;;;;;;;;;12.61;61.54;100090.53;5066384;28;20446;-50
2023/01/06 12:30:41;;;;;;;;;;;;;;;12.15;60.23;100086.38;5067339;28;19954;-51
2023/01/06 12:33:11;;;;;;;;;;;;;;;12.49;57.71;100102.00;5066749;28;19916;-51
2023/01/06 12:35:37;;;;;;;;;;;;;;;12.23;58.04;100107.72;5066991;28;19946;-52
2023/01/06 12:38:13;;;;;;;;;;;;;;;12.43;54.32;100120.22;5064974;28;19929;-51
2023/01/06 12:40:41;;;;;;;;;;;;;;;12.40;56.92;100104.78;5068172;28;19959;-52